JBU118 KJFK-KBOS
Flight info
| Callsign | JBU118 |
|---|---|
| Flight time | 0h 38m |
| Altitude | 21000 |
| Route | MERIT ROBUC3 |
| Aircraft | A320/M-SDE3FGHIRWY/LB1 |
Departure
| Time | 2026-05-05 21:01 |
|---|---|
| Airport | John F. Kennedy International Airport (KJFK) |
Arrival
| Time | 2026-05-05 21:40 |
|---|---|
| Airport | Boston Logan International Airport (KBOS) |
| Time | Latitude | Longitude | Altitude | Speed | Heading |
|---|---|---|---|---|---|
| 2026-05-05 20:58 | 40.64859 | -73.76712 | 23 ft | 20 kts | 31° |
| 2026-05-05 20:58 | 40.64979 | -73.76618 | 21 ft | 17 kts | 29° |
| 2026-05-05 20:58 | 40.65069 | -73.76552 | 21 ft | 13 kts | 30° |
| 2026-05-05 20:58 | 40.65105 | -73.76504 | 21 ft | 7 kts | 73° |
| 2026-05-05 20:59 | 40.65095 | -73.76458 | 22 ft | 0 kts | 116° |
| 2026-05-05 20:59 | 40.65093 | -73.76453 | 22 ft | 4 kts | 117° |
| 2026-05-05 20:59 | 40.65087 | -73.76441 | 25 ft | 0 kts | 123° |
| 2026-05-05 20:59 | 40.65081 | -73.76428 | 24 ft | 5 kts | 123° |
| 2026-05-05 21:00 | 40.65052 | -73.76374 | 23 ft | 9 kts | 132° |
| 2026-05-05 21:00 | 40.64994 | -73.76375 | 23 ft | 10 kts | 211° |
| 2026-05-05 21:00 | 40.64973 | -73.76391 | 22 ft | 0 kts | 212° |
| 2026-05-05 21:00 | 40.64970 | -73.76393 | 22 ft | 3 kts | 212° |
| 2026-05-05 21:01 | 40.64792 | -73.76533 | 22 ft | 63 kts | 211° |
| 2026-05-05 21:01 | 40.64246 | -73.76960 | 23 ft | 116 kts | 211° |
| 2026-05-05 21:01 | 40.63456 | -73.77584 | 170 ft | 141 kts | 207° |
| 2026-05-05 21:01 | 40.62640 | -73.78266 | 731 ft | 142 kts | 203° |
| 2026-05-05 21:02 | 40.61669 | -73.78498 | 1282 ft | 147 kts | 174° |
| 2026-05-05 21:02 | 40.60724 | -73.77835 | 1756 ft | 169 kts | 142° |
| 2026-05-05 21:02 | 40.60157 | -73.76344 | 2075 ft | 206 kts | 103° |
| 2026-05-05 21:02 | 40.60521 | -73.74374 | 2330 ft | 244 kts | 57° |
| 2026-05-05 21:03 | 40.61803 | -73.72754 | 2647 ft | 269 kts | 32° |
| 2026-05-05 21:03 | 40.63480 | -73.71447 | 3107 ft | 290 kts | 24° |
| 2026-05-05 21:03 | 40.65301 | -73.70245 | 3883 ft | 296 kts | 22° |
| 2026-05-05 21:03 | 40.67157 | -73.69034 | 4772 ft | 300 kts | 23° |
| 2026-05-05 21:04 | 40.69024 | -73.67761 | 5623 ft | 304 kts | 25° |
| 2026-05-05 21:04 | 40.70894 | -73.66418 | 6495 ft | 308 kts | 26° |
| 2026-05-05 21:04 | 40.72768 | -73.65018 | 7313 ft | 310 kts | 25° |
| 2026-05-05 21:04 | 40.74649 | -73.63580 | 8146 ft | 314 kts | 25° |
| 2026-05-05 21:05 | 40.76539 | -73.62116 | 8963 ft | 317 kts | 25° |
| 2026-05-05 21:05 | 40.78427 | -73.60647 | 9747 ft | 321 kts | 24° |
| 2026-05-05 21:05 | 40.80399 | -73.59115 | 10264 ft | 334 kts | 24° |
| 2026-05-05 21:05 | 40.82446 | -73.57534 | 10474 ft | 357 kts | 25° |
| 2026-05-05 21:06 | 40.84652 | -73.55825 | 10594 ft | 379 kts | 25° |
| 2026-05-05 21:06 | 40.86987 | -73.54008 | 10816 ft | 396 kts | 26° |
| 2026-05-05 21:06 | 40.89380 | -73.52134 | 11359 ft | 402 kts | 26° |
| 2026-05-05 21:06 | 40.91799 | -73.50233 | 11977 ft | 406 kts | 26° |
| 2026-05-05 21:07 | 40.94240 | -73.48318 | 12603 ft | 409 kts | 26° |
| 2026-05-05 21:07 | 40.96698 | -73.46394 | 13233 ft | 412 kts | 26° |
| 2026-05-05 21:07 | 40.99180 | -73.44456 | 13836 ft | 416 kts | 26° |
| 2026-05-05 21:07 | 41.01678 | -73.42502 | 14389 ft | 419 kts | 26° |
| 2026-05-05 21:08 | 41.04199 | -73.40528 | 14943 ft | 422 kts | 26° |
| 2026-05-05 21:08 | 41.06737 | -73.38539 | 15513 ft | 425 kts | 26° |
| 2026-05-05 21:08 | 41.09294 | -73.36539 | 16065 ft | 428 kts | 27° |
| 2026-05-05 21:08 | 41.11868 | -73.34525 | 16637 ft | 432 kts | 27° |
| 2026-05-05 21:09 | 41.14463 | -73.32491 | 17200 ft | 435 kts | 27° |
| 2026-05-05 21:09 | 41.17078 | -73.30435 | 17771 ft | 438 kts | 27° |
| 2026-05-05 21:09 | 41.19706 | -73.28362 | 18320 ft | 441 kts | 28° |
| 2026-05-05 21:09 | 41.22347 | -73.26279 | 18825 ft | 443 kts | 28° |
| 2026-05-05 21:10 | 41.25007 | -73.24182 | 19311 ft | 446 kts | 27° |
| 2026-05-05 21:10 | 41.27681 | -73.22071 | 19797 ft | 448 kts | 27° |
| 2026-05-05 21:10 | 41.30372 | -73.19937 | 20274 ft | 451 kts | 28° |
| 2026-05-05 21:10 | 41.32921 | -73.17456 | 20714 ft | 458 kts | 39° |
| 2026-05-05 21:11 | 41.35166 | -73.14426 | 20941 ft | 462 kts | 48° |
| 2026-05-05 21:11 | 41.37031 | -73.10963 | 21007 ft | 474 kts | 58° |
| 2026-05-05 21:11 | 41.38511 | -73.06975 | 21003 ft | 487 kts | 69° |
| 2026-05-05 21:11 | 41.39436 | -73.02606 | 21007 ft | 493 kts | 80° |
| 2026-05-05 21:12 | 41.39928 | -72.98071 | 21007 ft | 495 kts | 83° |
| 2026-05-05 21:12 | 41.40396 | -72.93534 | 20989 ft | 495 kts | 82° |
| 2026-05-05 21:12 | 41.40867 | -72.88991 | 21003 ft | 495 kts | 82° |
| 2026-05-05 21:12 | 41.41342 | -72.84450 | 20988 ft | 494 kts | 82° |
| 2026-05-05 21:13 | 41.41820 | -72.79923 | 20996 ft | 494 kts | 82° |
| 2026-05-05 21:13 | 41.42302 | -72.75379 | 21005 ft | 495 kts | 82° |
| 2026-05-05 21:13 | 41.42783 | -72.70849 | 20947 ft | 495 kts | 82° |
| 2026-05-05 21:13 | 41.43266 | -72.66311 | 20887 ft | 493 kts | 82° |
| 2026-05-05 21:14 | 41.43746 | -72.61786 | 20908 ft | 494 kts | 82° |
| 2026-05-05 21:14 | 41.44222 | -72.57255 | 20899 ft | 494 kts | 82° |
| 2026-05-05 21:14 | 41.44694 | -72.52720 | 20907 ft | 494 kts | 82° |
| 2026-05-05 21:14 | 41.45161 | -72.48187 | 20907 ft | 494 kts | 82° |
| 2026-05-05 21:15 | 41.45627 | -72.43650 | 20906 ft | 494 kts | 82° |
| 2026-05-05 21:15 | 41.46094 | -72.39112 | 20901 ft | 494 kts | 82° |
| 2026-05-05 21:15 | 41.46555 | -72.34634 | 20902 ft | 494 kts | 82° |
| 2026-05-05 21:15 | 41.47017 | -72.30098 | 20901 ft | 494 kts | 82° |
| 2026-05-05 21:16 | 41.47480 | -72.25561 | 20902 ft | 494 kts | 82° |
| 2026-05-05 21:16 | 41.48195 | -72.21093 | 20899 ft | 493 kts | 72° |
| 2026-05-05 21:16 | 41.49437 | -72.16846 | 20894 ft | 492 kts | 63° |
| 2026-05-05 21:16 | 41.50943 | -72.12747 | 20895 ft | 492 kts | 63° |
| 2026-05-05 21:17 | 41.52445 | -72.08650 | 20896 ft | 491 kts | 63° |
| 2026-05-05 21:17 | 41.53940 | -72.04551 | 20892 ft | 491 kts | 63° |
| 2026-05-05 21:17 | 41.55430 | -72.00451 | 20895 ft | 491 kts | 63° |
| 2026-05-05 21:17 | 41.56854 | -71.96300 | 20903 ft | 492 kts | 65° |
| 2026-05-05 21:18 | 41.58174 | -71.92083 | 20896 ft | 492 kts | 67° |
| 2026-05-05 21:18 | 41.59419 | -71.87825 | 20632 ft | 491 kts | 69° |
| 2026-05-05 21:18 | 41.60619 | -71.83575 | 19930 ft | 485 kts | 69° |
| 2026-05-05 21:18 | 41.61779 | -71.79436 | 19759 ft | 465 kts | 69° |
| 2026-05-05 21:19 | 41.62904 | -71.75474 | 19632 ft | 447 kts | 69° |
| 2026-05-05 21:19 | 41.64008 | -71.71658 | 19502 ft | 433 kts | 68° |
| 2026-05-05 21:19 | 41.65094 | -71.67958 | 19390 ft | 420 kts | 68° |
| 2026-05-05 21:19 | 41.66152 | -71.64386 | 19255 ft | 407 kts | 68° |
| 2026-05-05 21:20 | 41.67179 | -71.60919 | 19137 ft | 395 kts | 68° |
| 2026-05-05 21:20 | 41.68179 | -71.57545 | 18929 ft | 386 kts | 68° |
| 2026-05-05 21:20 | 41.69157 | -71.54230 | 18561 ft | 382 kts | 69° |
| 2026-05-05 21:20 | 41.70126 | -71.50922 | 18165 ft | 381 kts | 69° |
| 2026-05-05 21:21 | 41.71074 | -71.47672 | 17727 ft | 379 kts | 69° |
| 2026-05-05 21:21 | 41.72026 | -71.44396 | 17276 ft | 377 kts | 68° |
| 2026-05-05 21:21 | 41.73191 | -71.41265 | 16838 ft | 375 kts | 59° |
| 2026-05-05 21:21 | 41.74488 | -71.38250 | 16419 ft | 373 kts | 59° |
| 2026-05-05 21:22 | 41.75774 | -71.35246 | 16011 ft | 371 kts | 59° |
| 2026-05-05 21:22 | 41.77048 | -71.32251 | 15617 ft | 369 kts | 59° |
| 2026-05-05 21:22 | 41.78315 | -71.29277 | 15218 ft | 367 kts | 58° |
| 2026-05-05 21:22 | 41.79577 | -71.26315 | 14828 ft | 365 kts | 58° |
| 2026-05-05 21:23 | 41.80830 | -71.23371 | 14471 ft | 360 kts | 58° |
| 2026-05-05 21:23 | 41.82051 | -71.20501 | 14024 ft | 350 kts | 58° |
| 2026-05-05 21:23 | 41.83248 | -71.17686 | 13420 ft | 346 kts | 58° |
| 2026-05-05 21:23 | 41.84437 | -71.14890 | 12738 ft | 343 kts | 58° |
| 2026-05-05 21:24 | 41.85617 | -71.12117 | 12101 ft | 341 kts | 58° |
| 2026-05-05 21:24 | 41.86776 | -71.09405 | 11890 ft | 331 kts | 58° |
| 2026-05-05 21:24 | 41.87941 | -71.06702 | 11764 ft | 336 kts | 57° |
| 2026-05-05 21:24 | 41.89117 | -71.03991 | 11603 ft | 336 kts | 57° |
| 2026-05-05 21:25 | 41.90297 | -71.01276 | 11466 ft | 336 kts | 57° |
| 2026-05-05 21:25 | 41.91471 | -70.98572 | 11313 ft | 335 kts | 57° |
| 2026-05-05 21:25 | 41.92637 | -70.95868 | 11165 ft | 334 kts | 57° |
| 2026-05-05 21:25 | 41.93802 | -70.93163 | 11019 ft | 334 kts | 58° |
| 2026-05-05 21:26 | 41.94963 | -70.90465 | 10864 ft | 334 kts | 57° |
| 2026-05-05 21:26 | 41.96127 | -70.87771 | 10700 ft | 333 kts | 56° |
| 2026-05-05 21:26 | 41.97601 | -70.85420 | 10532 ft | 328 kts | 34° |
| 2026-05-05 21:26 | 41.99521 | -70.83903 | 10295 ft | 315 kts | 12° |
| 2026-05-05 21:27 | 42.01610 | -70.83363 | 10076 ft | 301 kts | 353° |
| 2026-05-05 21:27 | 42.03696 | -70.83327 | 9911 ft | 300 kts | 353° |
| 2026-05-05 21:27 | 42.05754 | -70.83290 | 9787 ft | 300 kts | 353° |
| 2026-05-05 21:27 | 42.07840 | -70.83244 | 9668 ft | 300 kts | 353° |
| 2026-05-05 21:28 | 42.09932 | -70.83191 | 9483 ft | 302 kts | 353° |
| 2026-05-05 21:28 | 42.12030 | -70.83139 | 9113 ft | 301 kts | 353° |
| 2026-05-05 21:28 | 42.14126 | -70.83083 | 8750 ft | 300 kts | 353° |
| 2026-05-05 21:28 | 42.16214 | -70.83026 | 8392 ft | 300 kts | 353° |
| 2026-05-05 21:29 | 42.18301 | -70.82965 | 8040 ft | 300 kts | 353° |
| 2026-05-05 21:29 | 42.20384 | -70.82908 | 7678 ft | 300 kts | 353° |
| 2026-05-05 21:29 | 42.22469 | -70.82855 | 7330 ft | 299 kts | 353° |
| 2026-05-05 21:29 | 42.24553 | -70.82802 | 6988 ft | 299 kts | 352° |
| 2026-05-05 21:30 | 42.26641 | -70.82747 | 6643 ft | 299 kts | 352° |
| 2026-05-05 21:30 | 42.28689 | -70.82696 | 6312 ft | 299 kts | 352° |
| 2026-05-05 21:30 | 42.30771 | -70.82644 | 5962 ft | 299 kts | 352° |
| 2026-05-05 21:30 | 42.32850 | -70.82587 | 5609 ft | 299 kts | 353° |
| 2026-05-05 21:31 | 42.34929 | -70.82530 | 5260 ft | 299 kts | 353° |
| 2026-05-05 21:31 | 42.37006 | -70.82475 | 4913 ft | 298 kts | 353° |
| 2026-05-05 21:31 | 42.39084 | -70.82420 | 4569 ft | 299 kts | 353° |
| 2026-05-05 21:31 | 42.41160 | -70.82364 | 4241 ft | 298 kts | 353° |
| 2026-05-05 21:32 | 42.43234 | -70.82311 | 3890 ft | 298 kts | 353° |
| 2026-05-05 21:32 | 42.45298 | -70.82258 | 3536 ft | 293 kts | 353° |
| 2026-05-05 21:32 | 42.47306 | -70.82202 | 3245 ft | 287 kts | 352° |
| 2026-05-05 21:32 | 42.49294 | -70.82143 | 3019 ft | 282 kts | 352° |
| 2026-05-05 21:33 | 42.51197 | -70.82176 | 2980 ft | 260 kts | 340° |
| 2026-05-05 21:33 | 42.52718 | -70.83032 | 2985 ft | 219 kts | 310° |
| 2026-05-05 21:33 | 42.53797 | -70.84337 | 2982 ft | 201 kts | 303° |
| 2026-05-05 21:33 | 42.54781 | -70.85654 | 2984 ft | 197 kts | 302° |
| 2026-05-05 21:34 | 42.55743 | -70.86956 | 2985 ft | 195 kts | 302° |
| 2026-05-05 21:34 | 42.56695 | -70.88260 | 2990 ft | 193 kts | 301° |
| 2026-05-05 21:34 | 42.57178 | -70.89832 | 2993 ft | 174 kts | 257° |
| 2026-05-05 21:34 | 42.56622 | -70.91155 | 2994 ft | 166 kts | 211° |
| 2026-05-05 21:35 | 42.55464 | -70.91458 | 2997 ft | 175 kts | 189° |
| 2026-05-05 21:35 | 42.54312 | -70.91827 | 2990 ft | 169 kts | 206° |
| 2026-05-05 21:35 | 42.53207 | -70.92388 | 2989 ft | 170 kts | 205° |
| 2026-05-05 21:35 | 42.52126 | -70.92916 | 2956 ft | 161 kts | 205° |
| 2026-05-05 21:36 | 42.51085 | -70.93422 | 2781 ft | 153 kts | 205° |
| 2026-05-05 21:36 | 42.50105 | -70.93900 | 2599 ft | 147 kts | 204° |
| 2026-05-05 21:36 | 42.49159 | -70.94361 | 2419 ft | 142 kts | 204° |
| 2026-05-05 21:36 | 42.48239 | -70.94808 | 2239 ft | 138 kts | 202° |
| 2026-05-05 21:37 | 42.47349 | -70.95241 | 2050 ft | 132 kts | 203° |
| 2026-05-05 21:37 | 42.46489 | -70.95659 | 1902 ft | 130 kts | 202° |
| 2026-05-05 21:37 | 42.45657 | -70.96063 | 1747 ft | 127 kts | 202° |
| 2026-05-05 21:37 | 42.44822 | -70.96469 | 1590 ft | 127 kts | 200° |
| 2026-05-05 21:38 | 42.43988 | -70.96874 | 1417 ft | 129 kts | 200° |
| 2026-05-05 21:38 | 42.43148 | -70.97282 | 1243 ft | 127 kts | 201° |
| 2026-05-05 21:38 | 42.42310 | -70.97689 | 1048 ft | 129 kts | 200° |
| 2026-05-05 21:38 | 42.41470 | -70.98097 | 891 ft | 129 kts | 200° |
| 2026-05-05 21:39 | 42.40625 | -70.98506 | 706 ft | 127 kts | 202° |
| 2026-05-05 21:39 | 42.39798 | -70.98909 | 562 ft | 127 kts | 204° |
| 2026-05-05 21:39 | 42.38965 | -70.99308 | 428 ft | 128 kts | 199° |
| 2026-05-05 21:39 | 42.38107 | -70.99729 | 223 ft | 130 kts | 201° |
| 2026-05-05 21:40 | 42.37278 | -71.00134 | 49 ft | 126 kts | 199° |
| 2026-05-05 21:40 | 42.36562 | -71.00480 | 27 ft | 92 kts | 199° |
| 2026-05-05 21:40 | 42.36292 | -71.00609 | 27 ft | 38 kts | 200° |
| 2026-05-05 21:40 | 42.36140 | -71.00737 | 27 ft | 18 kts | 257° |
| 2026-05-05 21:41 | 42.36180 | -71.00907 | 26 ft | 20 kts | 294° |
| 2026-05-05 21:41 | 42.36242 | -71.01092 | 25 ft | 23 kts | 296° |
| 2026-05-05 21:41 | 42.36323 | -71.01287 | 29 ft | 25 kts | 303° |
| 2026-05-05 21:41 | 42.36420 | -71.01396 | 26 ft | 16 kts | 15° |
| 2026-05-05 21:42 | 42.36501 | -71.01359 | 27 ft | 7 kts | 343° |
| 2026-05-05 21:42 | 42.36542 | -71.01404 | 25 ft | 6 kts | 324° |
| 2026-05-05 21:42 | 42.36545 | -71.01407 | 26 ft | 0 kts | 324° |